Oakland, MD

9:37 AM EST on December 11, 2016 (GMT -0500)
Cranesville Rd, Terra Alta, WV 26764 | | Change Station
Active Advisory: Freezing Rain Advisory Active Notice: Public Information Statement

Elev 2630 ft 39.45 °N, 79.54 °W | Updated 3 seconds ago

Overcast
Overcast
24.4 °F
Feels Like 24 °F
N
0.0
Wind Variable Wind from NNW
Gusts 0.0 mph

Today
High -- | Low -- °F
--% Chance of Precip.
Yesterday
High -- | Low -- °F
Precip. -- in
Pressure 30.27 in
Visibility 10.0 miles
Clouds Overcast 6000 ft
Windchill 24 °F
Dew Point 19 °F
Humidity 80%
Rainfall 0.00 in
Snow Depth Not available.
7:27 AM 4:54 PM
Waxing Gibbous, 92% visible
METAR K2G4 111410Z AUTO 13010KT 10SM OVC060 M08/M09 A3027 RMK AO1
Pressure 30.27 in
Visibility 10.0 miles
Clouds Overcast 6000 ft
Windchill 24 °F
Dew Point 19 °F
Humidity 80%
Rainfall 0.00 in
Snow Depth Not available.
7:27 AM 4:54 PM
Waxing Gibbous, 92% visible
METAR K2G4 111410Z AUTO 13010KT 10SM OVC060 M08/M09 A3027 RMK AO1

10-Day Weather Forecast

Almanac

Astronomy

Dec. 11, 2016 Rise Set
Actual Time
Civil Twilight
Nautical Twilight
Astronomical Twilight
Moon
Length of Visible Light
Length of Day
Tomorrow will be .
, % of the Moon is Illuminated

Today's Extremes

State Highs State Lows

Community

WunderPhotos

Upload Photos

1,956,719 photos uploaded!

WunderBlog® & News

Nearby

Air Quality

  Air Quality AQ Index Pollutant
Not available.

Snow Depth

Station Depth Elevation

Earthquake Activity

City Distance Mag. Time & Date
Minimum magnitude displayed is 2.5.

Coastal Water Temperatures

Place Temperature

Stations

Nearby Weather Stations

Station Location Temp. Windchill Dew Point Humidity Wind Precip. Elev Updated Type
                   

Watches & Warnings

Freezing Rain Advisory
Issued: 2:44 AM EST Dec. 11, 2016 – National Weather Service

... Freezing Rain Advisory in effect from 10 PM this evening to
4 am EST Monday...

The National Weather Service in Pittsburgh has issued a Freezing
Rain Advisory... which is in effect from 10 PM this evening to
4 am EST Monday.

* Ice accumulations... a glaze.

* Timing... light snow will fall this morning before ending this
afternoon. Precipitation will redevelop as freezing rain later
this evening and continue overnight until warmer air arrives
early Monday morning.

* Impacts... ice accumulations may create slippery Road conditions.

* Winds... south turning southwest 10 to 15 mph with gusts up to
20 mph.

* Temperatures... currently in the teens will rise through the 20s
and into the 30s tonight.

Precautionary/preparedness actions...

A Freezing Rain Advisory means that periods of freezing rain or
freezing drizzle will cause travel difficulties. Be prepared for
slippery roads. Slow down and use caution while driving.